createdAt,value
2024-01-29T00:02:05.744Z,384.00671140939596
2024-01-29T00:05:25.877Z,365.4496644295302
2024-01-29T00:08:46.469Z,374.4295302013423
2024-01-29T00:12:06.537Z,369.8322147651007
2024-01-29T00:15:28.270Z,378.1476510067114
2024-01-29T00:18:48.228Z,360.0134228187919
2024-01-29T00:22:08.505Z,366.9463087248322
2024-01-29T00:25:29.010Z,375.93959731543623
2024-01-29T00:28:48.808Z,361.93959731543623
2024-01-29T00:32:09.562Z,351.0134228187919
2024-01-29T00:35:29.755Z,332.61073825503354
2024-01-29T00:38:49.806Z,338.4765100671141
2024-01-29T00:42:21.953Z,356.89261744966444
2024-01-29T00:45:42.594Z,340.751677852349
2024-01-29T00:51:26.264Z,345.5503355704698
2024-01-29T00:54:46.734Z,350.6711409395973
2024-01-29T00:58:06.866Z,357.4161073825503
2024-01-29T01:01:28.670Z,368.6979865771812
2024-01-29T01:04:49.213Z,334.09395973154363
2024-01-29T01:08:08.489Z,370.99328859060404
2024-01-29T01:11:28.775Z,345.0402684563758
2024-01-29T01:14:48.730Z,331.93959731543623
2024-01-29T01:19:30.477Z,346.00671140939596
2024-01-29T01:22:52.073Z,338.8993288590604
2024-01-29T01:26:12.717Z,357.9865771812081
2024-01-29T01:29:32.707Z,340.4026845637584
2024-01-29T01:32:52.731Z,331.0
2024-01-29T01:36:13.406Z,342.51006711409394
2024-01-29T01:39:33.529Z,399.3691275167785
2024-01-29T01:42:54.135Z,388.4697986577181
2024-01-29T01:46:15.244Z,351.20805369127515
2024-01-29T01:49:36.418Z,402.12080536912754
2024-01-29T01:52:56.716Z,428.87919463087246
2024-01-29T01:56:17.992Z,369.5503355704698
2024-01-29T01:59:38.272Z,359.1744966442953
2024-01-29T02:02:58.458Z,357.43624161073825
2024-01-29T02:06:18.521Z,357.06711409395973
2024-01-29T02:09:38.688Z,338.08053691275165
2024-01-29T02:12:58.232Z,345.00671140939596
2024-01-29T02:16:18.685Z,406.8456375838926
2024-01-29T02:21:49.314Z,412.16107382550337
2024-01-29T02:25:09.348Z,392.4697986577181
2024-01-29T02:28:31.101Z,385.6577181208054
2024-01-29T02:31:51.064Z,383.8322147651007
2024-01-29T02:35:11.934Z,398.2953020134228
2024-01-29T02:39:36.741Z,405.06711409395973
2024-01-29T02:42:57.191Z,393.5436241610738
2024-01-29T02:46:17.923Z,378.5503355704698
2024-01-29T02:54:38.878Z,376.87919463087246
2024-01-29T02:57:59.833Z,339.4161073825503
2024-01-29T03:01:20.860Z,365.7852348993289
2024-01-29T03:04:40.737Z,346.1275167785235
2024-01-29T03:08:00.642Z,347.6711409395973
2024-01-29T03:11:21.726Z,362.97986577181206
2024-01-29T03:14:42.184Z,341.80536912751677
2024-01-29T03:18:02.972Z,319.12080536912754
2024-01-29T03:21:24.522Z,313.7986577181208
2024-01-29T03:24:45.677Z,276.1744966442953
2024-01-29T03:28:05.389Z,299.3154362416107
2024-01-29T03:31:25.572Z,307.4161073825503
2024-01-29T03:34:45.942Z,312.30872483221475
2024-01-29T03:38:06.743Z,314.6241610738255
2024-01-29T03:41:27.394Z,301.90604026845637
2024-01-29T03:44:48.422Z,313.0268456375839
2024-01-29T03:49:27.161Z,306.9865771812081
2024-01-29T03:52:48.170Z,311.23489932885906
2024-01-29T03:56:08.998Z,293.46308724832215
2024-01-29T04:00:17.807Z,306.12080536912754
2024-01-29T04:03:38.187Z,308.61073825503354
2024-01-29T04:06:59.916Z,311.758389261745
2024-01-29T04:10:20.544Z,312.86577181208054
2024-01-29T04:13:41.431Z,305.6711409395973
2024-01-29T04:17:02.116Z,310.241610738255
2024-01-29T04:20:22.793Z,299.81208053691273
2024-01-29T04:23:42.238Z,298.06040268456377
2024-01-29T04:27:02.819Z,306.28187919463085
2024-01-29T04:30:23.957Z,321.3489932885906
2024-01-29T04:33:44.489Z,332.241610738255
2024-01-29T04:37:05.531Z,334.8523489932886
2024-01-29T04:40:27.048Z,330.255033557047
2024-01-29T04:43:48.468Z,330.6241610738255
2024-01-29T04:47:08.797Z,303.255033557047
2024-01-29T04:50:30.109Z,305.13422818791946
2024-01-29T04:53:50.692Z,316.3557046979866
2024-01-29T04:57:11.217Z,329.99328859060404
2024-01-29T05:00:31.749Z,344.56375838926175
2024-01-29T05:03:51.769Z,331.96644295302013
2024-01-29T05:07:12.817Z,333.38255033557044
2024-01-29T05:10:33.464Z,353.06040268456377
2024-01-29T05:13:53.935Z,339.496644295302
2024-01-29T05:19:40.678Z,296.7718120805369
2024-01-29T05:23:01.005Z,303.96644295302013
2024-01-29T05:26:21.682Z,286.18791946308727
2024-01-29T05:29:41.951Z,300.5234899328859
2024-01-29T05:33:31.609Z,313.6040268456376
2024-01-29T05:36:51.494Z,297.30872483221475
2024-01-29T05:40:12.333Z,301.6040268456376
2024-01-29T05:43:33.592Z,311.8456375838926
2024-01-29T05:46:53.911Z,293.3489932885906
2024-01-29T05:50:15.382Z,295.2281879194631
2024-01-29T05:54:03.269Z,290.56375838926175
2024-01-29T05:57:24.540Z,302.6510067114094
2024-01-29T06:00:45.229Z,317.1140939597315
2024-01-29T06:04:05.828Z,305.18791946308727
2024-01-29T06:07:27.552Z,311.1140939597315
2024-01-29T06:10:49.410Z,288.1409395973154
2024-01-29T06:14:10.211Z,311.5503355704698
2024-01-29T06:19:28.746Z,317.63758389261744
2024-01-29T06:22:49.552Z,303.63758389261744
2024-01-29T06:26:10.216Z,299.30872483221475
2024-01-29T06:30:59.929Z,305.3489932885906
2024-01-29T06:34:20.658Z,306.76510067114094
2024-01-29T06:39:40.865Z,305.3959731543624
2024-01-29T06:45:27.446Z,315.99328859060404
2024-01-29T06:48:48.635Z,313.97986577181206
2024-01-29T06:52:12.527Z,323.9463087248322
2024-01-29T06:55:36.926Z,324.4697986577181
2024-01-29T06:58:57.692Z,305.6308724832215
2024-01-29T07:02:18.885Z,296.8322147651007
2024-01-29T07:05:39.339Z,326.09395973154363
2024-01-29T07:09:00.464Z,344.1140939597315
2024-01-29T07:12:21.937Z,366.0738255033557
2024-01-29T07:15:49.175Z,349.4295302013423
2024-01-29T07:20:46.357Z,327.10738255033556
2024-01-29T07:24:06.936Z,338.0872483221477
2024-01-29T07:27:27.384Z,345.1140939597315
2024-01-29T07:30:47.892Z,347.73825503355704
2024-01-29T07:34:08.635Z,334.51006711409394
2024-01-29T07:37:29.496Z,373.26174496644296
2024-01-29T07:40:49.237Z,400.51006711409394
2024-01-29T07:44:51.957Z,356.8859060402685
2024-01-29T07:50:22.472Z,331.18120805369125
2024-01-29T07:53:42.752Z,328.08053691275165
2024-01-29T07:57:27.481Z,352.9731543624161
2024-01-29T08:00:47.884Z,344.02013422818794
2024-01-29T08:04:08.243Z,357.59060402684565
2024-01-29T08:07:28.983Z,332.3154362416107
2024-01-29T08:10:49.868Z,336.30872483221475
2024-01-29T08:14:09.819Z,344.0402684563758
2024-01-29T08:19:18.030Z,331.61073825503354
2024-01-29T08:22:40.619Z,341.0536912751678
2024-01-29T08:26:00.888Z,344.7718120805369
2024-01-29T08:29:21.749Z,351.5973154362416
2024-01-29T08:32:41.653Z,344.8456375838926
2024-01-29T08:38:20.414Z,352.6442953020134
2024-01-29T08:41:40.725Z,364.6577181208054
2024-01-29T08:45:01.092Z,351.6845637583893
2024-01-29T08:48:22.068Z,373.28187919463085
2024-01-29T08:51:42.277Z,374.3758389261745
2024-01-29T08:55:02.498Z,357.248322147651
2024-01-29T08:58:25.412Z,374.0536912751678
2024-01-29T09:04:14.393Z,388.5704697986577
2024-01-29T09:07:34.788Z,364.6711409395973
2024-01-29T09:12:52.789Z,406.3758389261745
2024-01-29T09:17:43.595Z,412.4026845637584
2024-01-29T09:21:03.533Z,424.18791946308727
2024-01-29T09:24:23.705Z,413.8993288590604
2024-01-29T09:27:44.696Z,404.8590604026846
2024-01-29T09:31:05.093Z,384.38926174496646
2024-01-29T09:34:26.581Z,367.5503355704698
2024-01-29T09:47:05.652Z,397.83892617449663
2024-01-29T09:50:26.259Z,406.48993288590606
2024-01-29T09:53:46.469Z,396.40939597315435
2024-01-29T09:57:06.982Z,379.18791946308727
2024-01-29T10:00:29.908Z,423.71140939597313
2024-01-29T10:03:51.376Z,404.10738255033556
2024-01-29T10:07:11.677Z,405.99328859060404
2024-01-29T10:10:32.732Z,398.71812080536915
2024-01-29T10:13:53.006Z,387.0
2024-01-29T10:17:13.846Z,381.1409395973154
2024-01-29T10:23:08.692Z,376.758389261745
2024-01-29T10:26:29.864Z,394.56375838926175
2024-01-29T10:29:50.079Z,403.4161073825503
2024-01-29T10:33:10.855Z,402.2147651006711
2024-01-29T10:38:00.109Z,366.4765100671141
2024-01-29T10:41:20.903Z,398.255033557047
2024-01-29T10:44:41.070Z,401.7315436241611
2024-01-29T10:48:01.266Z,417.0469798657718
2024-01-29T10:51:21.274Z,402.1140939597315
2024-01-29T10:54:41.883Z,438.255033557047
2024-01-29T10:58:03.532Z,416.4563758389262
2024-01-29T11:02:03.807Z,447.56375838926175
2024-01-29T11:05:25.767Z,447.89261744966444
2024-01-29T11:08:46.511Z,439.4429530201342
2024-01-29T11:12:06.802Z,417.0402684563758
2024-01-29T11:15:27.600Z,409.8322147651007
2024-01-29T11:19:03.550Z,418.6577181208054
2024-01-29T11:24:39.020Z,415.03355704697987
2024-01-29T11:27:59.083Z,435.18791946308727
2024-01-29T11:35:54.861Z,460.0134228187919
2024-01-29T11:39:14.644Z,471.20805369127515
2024-01-29T11:42:35.143Z,493.73825503355704
2024-01-29T11:45:54.732Z,512.2348993288591
2024-01-29T11:49:14.920Z,527.7986577181208
2024-01-29T11:52:35.380Z,530.5771812080537
2024-01-29T11:55:55.665Z,514.7181208053692
2024-01-29T11:59:46.698Z,545.3087248322148
2024-01-29T12:03:07.562Z,546.9664429530201
2024-01-29T12:06:28.691Z,556.6375838926175
2024-01-29T12:09:48.148Z,541.6442953020135
2024-01-29T12:13:08.693Z,540.2818791946308
2024-01-29T12:17:06.415Z,544.5704697986578
2024-01-29T12:20:26.394Z,560.6040268456376
2024-01-29T12:23:52.358Z,576.5771812080537
2024-01-29T12:27:13.127Z,575.1812080536913
2024-01-29T12:30:33.080Z,560.6040268456376
2024-01-29T12:33:53.599Z,582.5838926174497
2024-01-29T12:37:14.159Z,635.8724832214765
2024-01-29T12:40:34.141Z,585.5369127516778
2024-01-29T12:43:54.020Z,575.8120805369127
2024-01-29T12:47:14.735Z,583.6174496644295
2024-01-29T12:50:34.618Z,585.0939597315436
2024-01-29T12:53:55.232Z,590.1208053691275
2024-01-29T13:00:36.413Z,573.7852348993289
2024-01-29T13:03:56.438Z,608.3422818791946
2024-01-29T13:07:18.441Z,588.9865771812081
2024-01-29T13:10:38.709Z,610.1409395973154
2024-01-29T13:13:59.831Z,587.8187919463087
2024-01-29T13:17:20.242Z,606.4295302013422
2024-01-29T13:21:24.415Z,593.9194630872483
2024-01-29T13:24:45.008Z,628.771812080537
2024-01-29T13:30:03.463Z,612.1208053691275
2024-01-29T13:33:24.568Z,642.744966442953
2024-01-29T13:36:45.242Z,575.5906040268457
2024-01-29T13:40:05.637Z,596.1006711409397
2024-01-29T13:43:26.525Z,603.8657718120805
2024-01-29T13:46:47.131Z,606.4362416107383
2024-01-29T13:50:07.500Z,614.6778523489933
2024-01-29T13:53:28.601Z,657.8724832214765
2024-01-29T13:56:48.893Z,657.5838926174497
2024-01-29T14:00:09.282Z,622.2214765100671
2024-01-29T14:03:30.358Z,608.3087248322148
2024-01-29T14:06:50.668Z,630.5704697986578
2024-01-29T14:10:10.924Z,686.6711409395973
2024-01-29T14:13:31.564Z,666.3892617449665
2024-01-29T14:16:51.892Z,663.5234899328859
2024-01-29T14:20:12.766Z,632.6375838926175
2024-01-29T14:23:33.741Z,693.3959731543624
2024-01-29T14:26:54.017Z,698.3557046979865
2024-01-29T14:30:14.765Z,720.9865771812081
2024-01-29T14:42:13.414Z,744.0872483221476
2024-01-29T14:45:34.340Z,730.8590604026846
2024-01-29T14:48:54.458Z,744.1073825503356
2024-01-29T14:52:14.965Z,764.7986577181208
2024-01-29T14:55:36.476Z,746.1140939597316
2024-01-29T14:58:56.964Z,768.9530201342282
2024-01-29T15:02:17.133Z,798.9127516778524
2024-01-29T15:05:38.532Z,805.255033557047
2024-01-29T15:08:58.584Z,803.8926174496644
2024-01-29T15:15:06.685Z,816.1879194630873
2024-01-29T15:18:26.942Z,788.1946308724832
2024-01-29T15:21:47.150Z,765.489932885906
2024-01-29T15:25:07.085Z,786.8456375838927
2024-01-29T15:28:27.912Z,788.8187919463087
2024-01-29T15:31:48.920Z,825.7046979865772
2024-01-29T15:35:09.371Z,819.489932885906
2024-01-29T15:38:30.290Z,844.4228187919463
2024-01-29T15:46:42.022Z,784.2818791946308
2024-01-29T15:50:02.627Z,858.9328859060403
2024-01-29T15:53:23.571Z,817.0335570469799
2024-01-29T15:56:43.934Z,852.0872483221476
2024-01-29T16:02:29.129Z,1090.6845637583892
2024-01-29T16:05:49.373Z,992.9328859060403
2024-01-29T16:09:59.320Z,980.2214765100671
2024-01-29T16:13:20.168Z,947.1812080536913
2024-01-29T16:16:41.267Z,958.4496644295302
2024-01-29T16:20:01.555Z,926.0201342281879
2024-01-29T16:27:59.061Z,967.9194630872483
2024-01-29T16:32:21.617Z,1149.241610738255
2024-01-29T16:36:46.626Z,1192.0268456375838
2024-01-29T16:40:24.638Z,1124.7181208053692
2024-01-29T16:43:45.697Z,1184.2617449664428
2024-01-29T16:47:05.978Z,1098.778523489933
2024-01-29T16:50:26.651Z,1138.275167785235
2024-01-29T16:53:47.195Z,1140.986577181208
2024-01-29T16:57:07.780Z,1042.3825503355704
2024-01-29T17:00:28.762Z,999.3892617449665
2024-01-29T17:03:48.912Z,1001.4362416107383
2024-01-29T17:09:30.645Z,1027.3422818791946
2024-01-29T17:15:10.477Z,990.4429530201343
2024-01-29T17:20:48.968Z,1000.5906040268457
2024-01-29T17:24:22.964Z,1025.476510067114
2024-01-29T17:27:44.147Z,1048.6107382550335
2024-01-29T17:31:04.152Z,1047.5302013422818
2024-01-29T17:34:25.314Z,1001.7046979865772
2024-01-29T17:37:46.208Z,992.5771812080537
2024-01-29T17:41:06.199Z,1031.1879194630872
2024-01-29T17:44:26.806Z,1031.489932885906
2024-01-29T17:47:46.625Z,1023.228187919463
2024-01-29T17:51:06.657Z,1023.8053691275168
2024-01-29T17:54:27.749Z,1013.4362416107383
2024-01-29T17:57:48.088Z,1016.0939597315436
2024-01-29T18:01:09.180Z,1036.3557046979865
2024-01-29T18:04:30.167Z,1019.1073825503356
2024-01-29T18:07:51.113Z,979.1610738255033
2024-01-29T18:11:11.782Z,979.255033557047
2024-01-29T18:14:33.168Z,996.5302013422819
2024-01-29T18:17:53.667Z,1021.8053691275168
2024-01-29T18:22:59.085Z,1005.1476510067114
2024-01-29T18:26:20.181Z,1025.6644295302012
2024-01-29T18:29:40.628Z,1031.9530201342282
2024-01-29T18:33:01.399Z,1069.1744966442952
2024-01-29T18:36:21.896Z,1098.7718120805368
2024-01-29T18:40:06.108Z,1077.9395973154362
2024-01-29T18:43:27.112Z,1057.8255033557048
2024-01-29T18:46:48.000Z,1073.6711409395973
2024-01-29T18:50:08.988Z,1103.3422818791946
2024-01-29T18:54:22.043Z,1090.3020134228188
2024-01-29T18:59:18.390Z,1174.4228187919464
2024-01-29T19:05:43.007Z,1222.476510067114
2024-01-29T19:09:03.351Z,1207.0805369127518
2024-01-29T19:12:24.316Z,1346.1073825503356
2024-01-29T19:15:44.997Z,1356.993288590604
2024-01-29T19:19:05.417Z,1218.3087248322147
2024-01-29T19:22:26.998Z,1184.7718120805368
2024-01-29T19:25:46.920Z,1255.96644295302
2024-01-29T19:29:06.899Z,1274.0872483221476
2024-01-29T19:32:27.748Z,1240.9463087248323
2024-01-29T19:35:47.528Z,1209.7718120805368
2024-01-29T19:39:07.598Z,1230.9597315436242
2024-01-29T19:45:48.360Z,1211.4429530201342
2024-01-29T19:49:08.294Z,1276.778523489933
2024-01-29T19:52:30.203Z,1267.1677852348994
2024-01-29T19:56:10.416Z,1303.2080536912752
2024-01-29T19:59:30.840Z,1270.3825503355704
2024-01-29T20:02:50.849Z,1293.489932885906
2024-01-29T20:06:10.894Z,1300.4228187919464
2024-01-29T20:09:32.007Z,1288.8791946308725
2024-01-29T20:12:52.049Z,1305.2617449664428
2024-01-29T20:16:12.773Z,1270.7986577181207
2024-01-29T20:19:33.620Z,1286.510067114094
2024-01-29T20:22:54.525Z,1311.96644295302
2024-01-29T20:26:15.973Z,1326.5570469798658
2024-01-29T20:29:36.573Z,1306.8456375838925
2024-01-29T20:34:36.506Z,1348.1006711409395
2024-01-29T20:37:57.195Z,1379.8255033557048
2024-01-29T20:42:21.402Z,1403.765100671141
2024-01-29T20:46:57.804Z,1437.0805369127518
2024-01-29T20:50:18.516Z,1525.5906040268455
2024-01-29T20:53:39.670Z,1508.456375838926
2024-01-29T21:00:06.810Z,1480.3557046979865
2024-01-29T21:03:27.144Z,1440.510067114094
2024-01-29T21:06:46.890Z,1419.2617449664428
2024-01-29T21:13:23.232Z,1449.4429530201342
2024-01-29T21:16:44.047Z,1461.8657718120805
2024-01-29T21:20:05.159Z,1421.2617449664428
2024-01-29T21:23:25.632Z,1475.4093959731545
2024-01-29T21:26:46.512Z,1447.7986577181207
2024-01-29T21:30:07.068Z,1496.6375838926174
2024-01-29T21:33:27.953Z,1449.9395973154362
2024-01-29T21:36:49.053Z,1452.8993288590605
2024-01-29T21:40:09.550Z,1480.7718120805368
2024-01-29T21:44:09.774Z,1516.1208053691275
2024-01-29T21:47:30.715Z,1530.778523489933
2024-01-29T21:50:51.853Z,1504.5167785234898
2024-01-29T21:54:12.946Z,1522.255033557047
2024-01-29T21:57:33.611Z,1491.6845637583892
2024-01-29T22:00:55.408Z,1496.3624161073826
2024-01-29T22:04:17.070Z,1525.3758389261745
2024-01-29T22:07:37.411Z,1555.3087248322147
2024-01-29T22:10:57.818Z,1544.3422818791946
2024-01-29T22:14:18.492Z,1572.6912751677853
2024-01-29T22:18:26.668Z,1579.6912751677853
2024-01-29T22:21:46.931Z,1556.5704697986578
2024-01-29T22:25:07.236Z,1492.476510067114
2024-01-29T22:28:28.026Z,1532.1006711409395
2024-01-29T22:31:48.567Z,1532.7181208053692
2024-01-29T22:35:08.997Z,1505.3288590604027
2024-01-29T22:38:29.739Z,1599.9194630872482
2024-01-29T22:41:49.983Z,1601.5167785234898
2024-01-29T22:45:10.671Z,1610.2147651006712
2024-01-29T22:48:31.126Z,1535.3154362416108
2024-01-29T22:51:52.093Z,1563.496644295302
2024-01-29T22:55:12.858Z,1493.7181208053692
2024-01-29T22:58:33.580Z,1574.3288590604027
2024-01-29T23:01:54.111Z,1582.4832214765102
2024-01-29T23:05:14.700Z,1616.9261744966443
2024-01-29T23:09:10.606Z,1593.9395973154362
2024-01-29T23:12:30.864Z,1503.9597315436242
2024-01-29T23:15:51.458Z,1512.5369127516778
2024-01-29T23:19:22.901Z,1480.3892617449665
2024-01-29T23:22:43.237Z,1492.03355704698
2024-01-29T23:27:08.483Z,1473.234899328859
2024-01-29T23:31:51.122Z,1504.5906040268455
2024-01-29T23:35:11.207Z,1508.1610738255033
2024-01-29T23:44:14.044Z,1467.6375838926174
2024-01-29T23:47:34.613Z,1444.2617449664428
2024-01-29T23:50:54.800Z,1466.9328859060402
2024-01-29T23:54:16.328Z,1442.0
2024-01-29T23:57:36.552Z,1429.6442953020135
